Potomac, Montana
Current Conditions -  °F | °C
As of 10:53 AM on Saturday 20 Dec 2014 (Local Time) from KMSO Reporting Station
Haze Haze  
Wind Chill: 29°   Ceiling: 6000
Heat Index: 29°   Visibility: 5mi
Dew Point: 28°   Wind: 0mph
Humidity: 96%   Direction: NA
Pressure: 29.94"   Gusts: NA
Location:  46.8727°N, 113.587°W
Report Text: KMSO 201753Z 00000KT 5SM BR OVC060 M02/M02 A2994 RMK AO2 SLP168 I6003 T10171022 11017 21044 56006 $
Loading
Personal Weather Stations






























Interactive Weather Map New forecast layout! Learn more

10-Day Weather Forecast

Advertisements
Track Severe Weather on mobile